sensor_id;sensor_type;location;lat;lon;timestamp;P1;durP1;ratioP1;P2;durP2;ratioP2
16832;SDS011;8533;48.426;10.868;2023-06-22T00:01:45;6.30;;;4.40;;
16832;SDS011;8533;48.426;10.868;2023-06-22T00:04:11;11.33;;;4.93;;
16832;SDS011;8533;48.426;10.868;2023-06-22T00:06:36;8.37;;;4.87;;
16832;SDS011;8533;48.426;10.868;2023-06-22T00:09:01;10.33;;;4.93;;
16832;SDS011;8533;48.426;10.868;2023-06-22T00:11:26;10.23;;;5.80;;
16832;SDS011;8533;48.426;10.868;2023-06-22T00:13:52;9.27;;;5.53;;
16832;SDS011;8533;48.426;10.868;2023-06-22T00:16:18;10.70;;;5.37;;
16832;SDS011;8533;48.426;10.868;2023-06-22T00:18:43;9.60;;;5.60;;
16832;SDS011;8533;48.426;10.868;2023-06-22T00:21:12;10.83;;;4.93;;
16832;SDS011;8533;48.426;10.868;2023-06-22T00:23:37;12.03;;;5.20;;
16832;SDS011;8533;48.426;10.868;2023-06-22T00:26:02;8.30;;;5.00;;
16832;SDS011;8533;48.426;10.868;2023-06-22T00:28:28;7.80;;;4.83;;
16832;SDS011;8533;48.426;10.868;2023-06-22T00:30:54;9.93;;;5.20;;
16832;SDS011;8533;48.426;10.868;2023-06-22T00:33:19;12.00;;;4.80;;
16832;SDS011;8533;48.426;10.868;2023-06-22T00:35:44;6.97;;;5.00;;
16832;SDS011;8533;48.426;10.868;2023-06-22T00:38:10;8.83;;;4.87;;
16832;SDS011;8533;48.426;10.868;2023-06-22T00:40:36;8.03;;;4.63;;
16832;SDS011;8533;48.426;10.868;2023-06-22T00:43:01;10.57;;;5.37;;
16832;SDS011;8533;48.426;10.868;2023-06-22T00:45:27;22.37;;;5.97;;
16832;SDS011;8533;48.426;10.868;2023-06-22T00:47:53;10.83;;;5.20;;
16832;SDS011;8533;48.426;10.868;2023-06-22T00:50:21;6.83;;;4.67;;
16832;SDS011;8533;48.426;10.868;2023-06-22T00:52:48;7.83;;;4.73;;
16832;SDS011;8533;48.426;10.868;2023-06-22T00:55:16;9.17;;;4.70;;
16832;SDS011;8533;48.426;10.868;2023-06-22T00:57:44;11.80;;;5.53;;
16832;SDS011;8533;48.426;10.868;2023-06-22T01:00:11;9.27;;;5.23;;
16832;SDS011;8533;48.426;10.868;2023-06-22T01:02:44;8.70;;;4.87;;
16832;SDS011;8533;48.426;10.868;2023-06-22T01:05:14;9.80;;;5.20;;
16832;SDS011;8533;48.426;10.868;2023-06-22T01:13:04;10.73;;;5.43;;
16832;SDS011;8533;48.426;10.868;2023-06-22T01:15:45;8.50;;;5.07;;
16832;SDS011;8533;48.426;10.868;2023-06-22T01:18:15;8.90;;;4.70;;
16832;SDS011;8533;48.426;10.868;2023-06-22T01:20:43;8.60;;;5.17;;
16832;SDS011;8533;48.426;10.868;2023-06-22T01:31:07;11.63;;;5.40;;
16832;SDS011;8533;48.426;10.868;2023-06-22T01:33:35;8.87;;;4.73;;
16832;SDS011;8533;48.426;10.868;2023-06-22T01:36:03;12.73;;;6.33;;
16832;SDS011;8533;48.426;10.868;2023-06-22T01:38:29;8.33;;;4.63;;
16832;SDS011;8533;48.426;10.868;2023-06-22T01:40:56;11.27;;;5.13;;
16832;SDS011;8533;48.426;10.868;2023-06-22T01:43:22;12.37;;;5.87;;
16832;SDS011;8533;48.426;10.868;2023-06-22T01:45:50;11.40;;;5.37;;
16832;SDS011;8533;48.426;10.868;2023-06-22T01:48:16;10.03;;;5.27;;
16832;SDS011;8533;48.426;10.868;2023-06-22T01:50:43;7.67;;;4.63;;
16832;SDS011;8533;48.426;10.868;2023-06-22T01:53:08;11.37;;;5.60;;
16832;SDS011;8533;48.426;10.868;2023-06-22T01:55:33;8.93;;;5.30;;
16832;SDS011;8533;48.426;10.868;2023-06-22T01:57:58;11.33;;;5.20;;
16832;SDS011;8533;48.426;10.868;2023-06-22T02:00:24;11.23;;;5.80;;
16832;SDS011;8533;48.426;10.868;2023-06-22T02:05:25;13.03;;;6.00;;
16832;SDS011;8533;48.426;10.868;2023-06-22T02:07:59;11.40;;;6.00;;
16832;SDS011;8533;48.426;10.868;2023-06-22T02:10:31;11.97;;;6.97;;
16832;SDS011;8533;48.426;10.868;2023-06-22T02:12:57;13.10;;;5.27;;
16832;SDS011;8533;48.426;10.868;2023-06-22T02:15:24;10.37;;;5.83;;
16832;SDS011;8533;48.426;10.868;2023-06-22T02:17:50;9.73;;;6.07;;
16832;SDS011;8533;48.426;10.868;2023-06-22T02:20:15;8.67;;;5.80;;
16832;SDS011;8533;48.426;10.868;2023-06-22T02:22:41;9.63;;;6.47;;
16832;SDS011;8533;48.426;10.868;2023-06-22T02:25:07;12.33;;;6.23;;
16832;SDS011;8533;48.426;10.868;2023-06-22T02:27:33;12.73;;;6.50;;
16832;SDS011;8533;48.426;10.868;2023-06-22T02:29:58;11.53;;;5.83;;
16832;SDS011;8533;48.426;10.868;2023-06-22T02:32:23;12.93;;;6.73;;
16832;SDS011;8533;48.426;10.868;2023-06-22T02:34:48;13.93;;;7.10;;
16832;SDS011;8533;48.426;10.868;2023-06-22T02:37:14;15.33;;;6.50;;
16832;SDS011;8533;48.426;10.868;2023-06-22T02:39:40;11.27;;;5.97;;
16832;SDS011;8533;48.426;10.868;2023-06-22T02:42:05;10.93;;;6.53;;
16832;SDS011;8533;48.426;10.868;2023-06-22T02:44:31;12.40;;;6.33;;
16832;SDS011;8533;48.426;10.868;2023-06-22T02:46:56;14.97;;;5.87;;
16832;SDS011;8533;48.426;10.868;2023-06-22T02:49:22;12.37;;;6.37;;
16832;SDS011;8533;48.426;10.868;2023-06-22T02:51:48;8.73;;;5.90;;
16832;SDS011;8533;48.426;10.868;2023-06-22T02:54:14;14.43;;;6.50;;
16832;SDS011;8533;48.426;10.868;2023-06-22T02:56:39;11.33;;;6.37;;
16832;SDS011;8533;48.426;10.868;2023-06-22T02:59:06;13.90;;;6.07;;
16832;SDS011;8533;48.426;10.868;2023-06-22T03:01:31;12.33;;;6.33;;
16832;SDS011;8533;48.426;10.868;2023-06-22T03:04:02;14.50;;;5.97;;
16832;SDS011;8533;48.426;10.868;2023-06-22T03:06:28;10.87;;;6.10;;
16832;SDS011;8533;48.426;10.868;2023-06-22T03:08:58;11.87;;;6.63;;
16832;SDS011;8533;48.426;10.868;2023-06-22T03:11:25;12.83;;;6.80;;
16832;SDS011;8533;48.426;10.868;2023-06-22T03:13:50;13.40;;;6.77;;
16832;SDS011;8533;48.426;10.868;2023-06-22T03:16:17;14.70;;;6.90;;
16832;SDS011;8533;48.426;10.868;2023-06-22T03:18:42;11.70;;;7.07;;
16832;SDS011;8533;48.426;10.868;2023-06-22T03:21:08;9.70;;;6.37;;
16832;SDS011;8533;48.426;10.868;2023-06-22T03:23:33;13.47;;;6.40;;
16832;SDS011;8533;48.426;10.868;2023-06-22T03:25:58;12.63;;;6.77;;
16832;SDS011;8533;48.426;10.868;2023-06-22T03:28:23;13.27;;;6.63;;
16832;SDS011;8533;48.426;10.868;2023-06-22T03:30:49;12.30;;;6.50;;
16832;SDS011;8533;48.426;10.868;2023-06-22T03:33:14;14.10;;;6.83;;
16832;SDS011;8533;48.426;10.868;2023-06-22T03:35:39;12.53;;;6.57;;
16832;SDS011;8533;48.426;10.868;2023-06-22T03:38:05;12.37;;;6.87;;
16832;SDS011;8533;48.426;10.868;2023-06-22T03:40:30;11.40;;;6.70;;
16832;SDS011;8533;48.426;10.868;2023-06-22T03:42:55;14.97;;;6.83;;
16832;SDS011;8533;48.426;10.868;2023-06-22T03:45:20;9.47;;;6.10;;
16832;SDS011;8533;48.426;10.868;2023-06-22T03:47:46;11.13;;;6.67;;
16832;SDS011;8533;48.426;10.868;2023-06-22T03:50:11;12.23;;;6.43;;
16832;SDS011;8533;48.426;10.868;2023-06-22T03:52:36;15.40;;;7.60;;
16832;SDS011;8533;48.426;10.868;2023-06-22T03:55:02;15.63;;;7.43;;
16832;SDS011;8533;48.426;10.868;2023-06-22T03:57:27;13.00;;;6.47;;
16832;SDS011;8533;48.426;10.868;2023-06-22T03:59:54;15.33;;;7.57;;
16832;SDS011;8533;48.426;10.868;2023-06-22T04:02:21;14.07;;;7.33;;
16832;SDS011;8533;48.426;10.868;2023-06-22T04:04:46;15.60;;;6.93;;
16832;SDS011;8533;48.426;10.868;2023-06-22T04:07:11;11.40;;;5.97;;
16832;SDS011;8533;48.426;10.868;2023-06-22T04:09:37;9.73;;;6.23;;
16832;SDS011;8533;48.426;10.868;2023-06-22T04:12:02;11.37;;;5.70;;
16832;SDS011;8533;48.426;10.868;2023-06-22T04:14:28;9.23;;;5.50;;
16832;SDS011;8533;48.426;10.868;2023-06-22T04:16:53;9.57;;;5.87;;
16832;SDS011;8533;48.426;10.868;2023-06-22T04:19:18;11.63;;;6.30;;
16832;SDS011;8533;48.426;10.868;2023-06-22T04:21:43;13.07;;;6.53;;
16832;SDS011;8533;48.426;10.868;2023-06-22T04:24:13;11.63;;;6.17;;
16832;SDS011;8533;48.426;10.868;2023-06-22T04:26:39;9.67;;;5.67;;
16832;SDS011;8533;48.426;10.868;2023-06-22T04:29:06;15.50;;;6.37;;
16832;SDS011;8533;48.426;10.868;2023-06-22T04:31:33;9.10;;;6.13;;
16832;SDS011;8533;48.426;10.868;2023-06-22T04:34:03;8.93;;;5.57;;
16832;SDS011;8533;48.426;10.868;2023-06-22T04:36:33;8.77;;;5.87;;
16832;SDS011;8533;48.426;10.868;2023-06-22T04:39:06;15.57;;;6.13;;
16832;SDS011;8533;48.426;10.868;2023-06-22T04:41:34;12.73;;;6.10;;
16832;SDS011;8533;48.426;10.868;2023-06-22T04:44:09;12.40;;;6.20;;
16832;SDS011;8533;48.426;10.868;2023-06-22T04:46:39;13.17;;;6.77;;
16832;SDS011;8533;48.426;10.868;2023-06-22T04:49:05;9.80;;;6.33;;
16832;SDS011;8533;48.426;10.868;2023-06-22T04:51:39;11.90;;;6.70;;
16832;SDS011;8533;48.426;10.868;2023-06-22T04:54:05;9.97;;;6.33;;
16832;SDS011;8533;48.426;10.868;2023-06-22T04:56:31;9.67;;;6.70;;
16832;SDS011;8533;48.426;10.868;2023-06-22T04:58:57;8.43;;;6.43;;
16832;SDS011;8533;48.426;10.868;2023-06-22T05:01:23;10.87;;;6.43;;
16832;SDS011;8533;48.426;10.868;2023-06-22T05:03:48;9.80;;;5.83;;
16832;SDS011;8533;48.426;10.868;2023-06-22T05:06:14;11.23;;;6.30;;
16832;SDS011;8533;48.426;10.868;2023-06-22T05:08:40;11.03;;;6.17;;
16832;SDS011;8533;48.426;10.868;2023-06-22T05:11:05;9.57;;;5.80;;
16832;SDS011;8533;48.426;10.868;2023-06-22T05:13:31;10.13;;;6.20;;
16832;SDS011;8533;48.426;10.868;2023-06-22T05:15:57;12.53;;;6.63;;
16832;SDS011;8533;48.426;10.868;2023-06-22T05:18:26;10.97;;;6.40;;
16832;SDS011;8533;48.426;10.868;2023-06-22T05:20:54;12.30;;;6.63;;
16832;SDS011;8533;48.426;10.868;2023-06-22T05:23:19;11.47;;;6.50;;
16832;SDS011;8533;48.426;10.868;2023-06-22T05:25:44;11.30;;;6.50;;
16832;SDS011;8533;48.426;10.868;2023-06-22T05:28:10;10.70;;;6.50;;
16832;SDS011;8533;48.426;10.868;2023-06-22T05:30:36;10.10;;;7.07;;
16832;SDS011;8533;48.426;10.868;2023-06-22T05:33:02;9.57;;;6.20;;
16832;SDS011;8533;48.426;10.868;2023-06-22T05:35:27;12.60;;;7.80;;
16832;SDS011;8533;48.426;10.868;2023-06-22T05:37:52;12.80;;;7.23;;
16832;SDS011;8533;48.426;10.868;2023-06-22T05:40:17;11.73;;;6.90;;
16832;SDS011;8533;48.426;10.868;2023-06-22T05:42:43;11.90;;;7.40;;
16832;SDS011;8533;48.426;10.868;2023-06-22T05:45:08;14.37;;;7.10;;
16832;SDS011;8533;48.426;10.868;2023-06-22T05:47:34;14.07;;;7.87;;
16832;SDS011;8533;48.426;10.868;2023-06-22T05:49:59;15.60;;;7.57;;
16832;SDS011;8533;48.426;10.868;2023-06-22T05:52:25;14.73;;;8.07;;
16832;SDS011;8533;48.426;10.868;2023-06-22T05:54:50;12.77;;;7.30;;
16832;SDS011;8533;48.426;10.868;2023-06-22T05:57:15;17.17;;;7.40;;
16832;SDS011;8533;48.426;10.868;2023-06-22T05:59:40;15.07;;;8.00;;
16832;SDS011;8533;48.426;10.868;2023-06-22T06:02:06;10.93;;;7.07;;
16832;SDS011;8533;48.426;10.868;2023-06-22T06:04:31;11.27;;;6.90;;
16832;SDS011;8533;48.426;10.868;2023-06-22T06:06:56;13.63;;;6.57;;
16832;SDS011;8533;48.426;10.868;2023-06-22T06:09:22;11.10;;;6.20;;
16832;SDS011;8533;48.426;10.868;2023-06-22T06:11:47;13.80;;;6.87;;
16832;SDS011;8533;48.426;10.868;2023-06-22T06:14:13;9.40;;;6.33;;
16832;SDS011;8533;48.426;10.868;2023-06-22T06:16:38;9.43;;;6.37;;
16832;SDS011;8533;48.426;10.868;2023-06-22T06:19:03;10.53;;;6.40;;
16832;SDS011;8533;48.426;10.868;2023-06-22T06:21:28;11.17;;;7.30;;
16832;SDS011;8533;48.426;10.868;2023-06-22T06:23:54;12.50;;;7.20;;
16832;SDS011;8533;48.426;10.868;2023-06-22T06:26:19;9.27;;;6.43;;
16832;SDS011;8533;48.426;10.868;2023-06-22T06:28:52;10.93;;;6.50;;
16832;SDS011;8533;48.426;10.868;2023-06-22T06:31:18;10.77;;;6.80;;
16832;SDS011;8533;48.426;10.868;2023-06-22T06:33:43;10.57;;;7.00;;
16832;SDS011;8533;48.426;10.868;2023-06-22T06:36:09;13.33;;;6.87;;
16832;SDS011;8533;48.426;10.868;2023-06-22T06:38:34;9.33;;;5.77;;
16832;SDS011;8533;48.426;10.868;2023-06-22T06:40:59;10.47;;;5.40;;
16832;SDS011;8533;48.426;10.868;2023-06-22T06:43:25;10.93;;;5.97;;
16832;SDS011;8533;48.426;10.868;2023-06-22T06:45:50;8.67;;;5.37;;
16832;SDS011;8533;48.426;10.868;2023-06-22T06:48:16;8.50;;;5.13;;
16832;SDS011;8533;48.426;10.868;2023-06-22T06:50:42;8.20;;;4.77;;
16832;SDS011;8533;48.426;10.868;2023-06-22T06:53:08;14.67;;;6.00;;
16832;SDS011;8533;48.426;10.868;2023-06-22T06:55:34;11.50;;;4.80;;
16832;SDS011;8533;48.426;10.868;2023-06-22T06:57:59;10.13;;;5.37;;
16832;SDS011;8533;48.426;10.868;2023-06-22T07:00:25;8.70;;;5.10;;
16832;SDS011;8533;48.426;10.868;2023-06-22T07:02:51;8.43;;;4.90;;
16832;SDS011;8533;48.426;10.868;2023-06-22T07:05:17;8.03;;;4.73;;
16832;SDS011;8533;48.426;10.868;2023-06-22T07:07:43;9.27;;;5.30;;
16832;SDS011;8533;48.426;10.868;2023-06-22T07:10:08;7.93;;;4.73;;
16832;SDS011;8533;48.426;10.868;2023-06-22T07:12:34;6.40;;;4.20;;
16832;SDS011;8533;48.426;10.868;2023-06-22T07:15:06;12.23;;;4.87;;
16832;SDS011;8533;48.426;10.868;2023-06-22T07:17:33;5.83;;;4.53;;
16832;SDS011;8533;48.426;10.868;2023-06-22T07:19:59;7.80;;;4.60;;
16832;SDS011;8533;48.426;10.868;2023-06-22T07:22:25;8.87;;;4.70;;
16832;SDS011;8533;48.426;10.868;2023-06-22T07:24:50;8.27;;;4.77;;
16832;SDS011;8533;48.426;10.868;2023-06-22T07:27:16;10.63;;;5.07;;
16832;SDS011;8533;48.426;10.868;2023-06-22T07:29:44;9.63;;;4.40;;
16832;SDS011;8533;48.426;10.868;2023-06-22T07:32:10;10.70;;;4.90;;
16832;SDS011;8533;48.426;10.868;2023-06-22T07:34:35;9.37;;;4.97;;
16832;SDS011;8533;48.426;10.868;2023-06-22T07:37:00;8.77;;;4.57;;
16832;SDS011;8533;48.426;10.868;2023-06-22T07:39:26;7.57;;;4.10;;
16832;SDS011;8533;48.426;10.868;2023-06-22T07:41:51;8.23;;;4.53;;
16832;SDS011;8533;48.426;10.868;2023-06-22T07:44:17;8.87;;;4.67;;
16832;SDS011;8533;48.426;10.868;2023-06-22T07:46:42;9.73;;;4.77;;
16832;SDS011;8533;48.426;10.868;2023-06-22T07:49:07;9.43;;;4.27;;
16832;SDS011;8533;48.426;10.868;2023-06-22T07:51:33;8.30;;;4.63;;
16832;SDS011;8533;48.426;10.868;2023-06-22T07:53:59;8.27;;;4.90;;
16832;SDS011;8533;48.426;10.868;2023-06-22T07:56:24;9.00;;;4.70;;
16832;SDS011;8533;48.426;10.868;2023-06-22T07:58:50;9.50;;;4.73;;
16832;SDS011;8533;48.426;10.868;2023-06-22T08:01:15;7.87;;;4.43;;
16832;SDS011;8533;48.426;10.868;2023-06-22T08:03:41;6.63;;;4.27;;
16832;SDS011;8533;48.426;10.868;2023-06-22T08:06:07;10.03;;;4.40;;
16832;SDS011;8533;48.426;10.868;2023-06-22T08:08:34;8.90;;;4.93;;
16832;SDS011;8533;48.426;10.868;2023-06-22T08:11:02;9.63;;;4.13;;
16832;SDS011;8533;48.426;10.868;2023-06-22T08:13:27;8.30;;;4.93;;
16832;SDS011;8533;48.426;10.868;2023-06-22T08:15:53;8.57;;;4.83;;
16832;SDS011;8533;48.426;10.868;2023-06-22T08:18:18;11.03;;;4.70;;
16832;SDS011;8533;48.426;10.868;2023-06-22T08:20:44;9.20;;;5.20;;
16832;SDS011;8533;48.426;10.868;2023-06-22T08:23:09;8.17;;;4.73;;
16832;SDS011;8533;48.426;10.868;2023-06-22T08:25:34;8.73;;;5.00;;
16832;SDS011;8533;48.426;10.868;2023-06-22T08:28:03;8.97;;;4.97;;
16832;SDS011;8533;48.426;10.868;2023-06-22T08:30:29;9.03;;;4.87;;
16832;SDS011;8533;48.426;10.868;2023-06-22T08:32:54;9.50;;;5.40;;
16832;SDS011;8533;48.426;10.868;2023-06-22T08:35:20;12.23;;;5.47;;
16832;SDS011;8533;48.426;10.868;2023-06-22T08:37:47;9.93;;;4.60;;
16832;SDS011;8533;48.426;10.868;2023-06-22T08:40:16;8.00;;;4.53;;
16832;SDS011;8533;48.426;10.868;2023-06-22T08:42:42;8.47;;;4.63;;
16832;SDS011;8533;48.426;10.868;2023-06-22T08:45:07;9.13;;;5.13;;
16832;SDS011;8533;48.426;10.868;2023-06-22T08:47:33;8.57;;;4.70;;
16832;SDS011;8533;48.426;10.868;2023-06-22T08:49:58;11.80;;;5.20;;
16832;SDS011;8533;48.426;10.868;2023-06-22T08:52:23;11.53;;;4.90;;
16832;SDS011;8533;48.426;10.868;2023-06-22T08:54:49;10.13;;;5.40;;
16832;SDS011;8533;48.426;10.868;2023-06-22T08:57:14;12.03;;;5.00;;
16832;SDS011;8533;48.426;10.868;2023-06-22T08:59:40;9.97;;;4.83;;
16832;SDS011;8533;48.426;10.868;2023-06-22T09:02:06;13.00;;;5.00;;
16832;SDS011;8533;48.426;10.868;2023-06-22T09:04:32;7.70;;;4.70;;
16832;SDS011;8533;48.426;10.868;2023-06-22T09:07:00;10.63;;;5.10;;
16832;SDS011;8533;48.426;10.868;2023-06-22T09:09:25;6.90;;;4.70;;
16832;SDS011;8533;48.426;10.868;2023-06-22T09:11:51;9.57;;;4.90;;
16832;SDS011;8533;48.426;10.868;2023-06-22T09:14:16;12.30;;;5.03;;
16832;SDS011;8533;48.426;10.868;2023-06-22T09:16:41;9.80;;;5.07;;
16832;SDS011;8533;48.426;10.868;2023-06-22T09:19:06;10.30;;;5.30;;
16832;SDS011;8533;48.426;10.868;2023-06-22T09:21:32;9.30;;;4.93;;
16832;SDS011;8533;48.426;10.868;2023-06-22T09:23:57;11.67;;;4.73;;
16832;SDS011;8533;48.426;10.868;2023-06-22T09:26:22;10.77;;;4.90;;
16832;SDS011;8533;48.426;10.868;2023-06-22T09:28:48;14.23;;;5.37;;
16832;SDS011;8533;48.426;10.868;2023-06-22T09:31:14;10.13;;;5.53;;
16832;SDS011;8533;48.426;10.868;2023-06-22T09:33:41;13.17;;;5.33;;
16832;SDS011;8533;48.426;10.868;2023-06-22T09:36:07;11.80;;;4.73;;
16832;SDS011;8533;48.426;10.868;2023-06-22T09:38:38;11.50;;;5.70;;
16832;SDS011;8533;48.426;10.868;2023-06-22T09:41:04;11.60;;;5.30;;
16832;SDS011;8533;48.426;10.868;2023-06-22T09:43:30;10.10;;;5.70;;
16832;SDS011;8533;48.426;10.868;2023-06-22T09:45:57;14.40;;;5.33;;
16832;SDS011;8533;48.426;10.868;2023-06-22T09:48:22;12.07;;;5.10;;
16832;SDS011;8533;48.426;10.868;2023-06-22T09:50:47;13.40;;;5.43;;
16832;SDS011;8533;48.426;10.868;2023-06-22T09:53:13;14.70;;;5.87;;
16832;SDS011;8533;48.426;10.868;2023-06-22T09:55:38;12.67;;;5.50;;
16832;SDS011;8533;48.426;10.868;2023-06-22T09:58:03;13.20;;;5.27;;
16832;SDS011;8533;48.426;10.868;2023-06-22T10:00:28;13.13;;;5.03;;
16832;SDS011;8533;48.426;10.868;2023-06-22T10:02:54;9.83;;;4.90;;
16832;SDS011;8533;48.426;10.868;2023-06-22T10:05:20;10.93;;;5.47;;
16832;SDS011;8533;48.426;10.868;2023-06-22T10:07:46;7.57;;;4.93;;
16832;SDS011;8533;48.426;10.868;2023-06-22T10:10:12;11.67;;;5.87;;
16832;SDS011;8533;48.426;10.868;2023-06-22T10:12:41;9.17;;;5.30;;
16832;SDS011;8533;48.426;10.868;2023-06-22T10:15:26;9.70;;;4.97;;
16832;SDS011;8533;48.426;10.868;2023-06-22T10:17:52;7.50;;;4.90;;
16832;SDS011;8533;48.426;10.868;2023-06-22T10:20:18;16.90;;;6.03;;
16832;SDS011;8533;48.426;10.868;2023-06-22T10:22:44;13.00;;;5.40;;
16832;SDS011;8533;48.426;10.868;2023-06-22T10:25:10;13.13;;;5.27;;
16832;SDS011;8533;48.426;10.868;2023-06-22T10:27:36;11.33;;;4.97;;
16832;SDS011;8533;48.426;10.868;2023-06-22T10:30:05;9.57;;;5.10;;
16832;SDS011;8533;48.426;10.868;2023-06-22T10:32:31;12.03;;;5.07;;
16832;SDS011;8533;48.426;10.868;2023-06-22T10:34:57;13.10;;;5.43;;
16832;SDS011;8533;48.426;10.868;2023-06-22T10:37:22;11.73;;;5.20;;
16832;SDS011;8533;48.426;10.868;2023-06-22T10:39:47;12.60;;;5.20;;
16832;SDS011;8533;48.426;10.868;2023-06-22T10:42:13;10.67;;;7.23;;
16832;SDS011;8533;48.426;10.868;2023-06-22T10:44:38;11.73;;;6.57;;
16832;SDS011;8533;48.426;10.868;2023-06-22T10:47:06;7.27;;;4.90;;
16832;SDS011;8533;48.426;10.868;2023-06-22T10:49:31;11.27;;;4.90;;
16832;SDS011;8533;48.426;10.868;2023-06-22T10:51:57;11.73;;;5.43;;
16832;SDS011;8533;48.426;10.868;2023-06-22T10:54:22;10.57;;;5.37;;
16832;SDS011;8533;48.426;10.868;2023-06-22T10:56:47;10.93;;;4.57;;
16832;SDS011;8533;48.426;10.868;2023-06-22T10:59:13;11.37;;;4.70;;
16832;SDS011;8533;48.426;10.868;2023-06-22T11:01:38;9.27;;;4.73;;
16832;SDS011;8533;48.426;10.868;2023-06-22T11:04:03;10.13;;;4.60;;
16832;SDS011;8533;48.426;10.868;2023-06-22T11:06:29;9.23;;;4.77;;
16832;SDS011;8533;48.426;10.868;2023-06-22T11:08:54;11.27;;;5.40;;
16832;SDS011;8533;48.426;10.868;2023-06-22T11:11:19;9.57;;;5.30;;
16832;SDS011;8533;48.426;10.868;2023-06-22T11:13:45;6.60;;;4.83;;
16832;SDS011;8533;48.426;10.868;2023-06-22T11:16:10;13.40;;;5.10;;
16832;SDS011;8533;48.426;10.868;2023-06-22T11:18:36;7.53;;;4.83;;
16832;SDS011;8533;48.426;10.868;2023-06-22T11:21:01;8.38;;;4.82;;
16832;SDS011;8533;48.426;10.868;2023-06-22T11:23:26;12.43;;;5.10;;
16832;SDS011;8533;48.426;10.868;2023-06-22T11:25:52;9.67;;;4.70;;
16832;SDS011;8533;48.426;10.868;2023-06-22T11:28:18;10.85;;;4.93;;
16832;SDS011;8533;48.426;10.868;2023-06-22T11:30:43;11.98;;;6.22;;
16832;SDS011;8533;48.426;10.868;2023-06-22T11:33:08;10.45;;;4.97;;
16832;SDS011;8533;48.426;10.868;2023-06-22T11:35:34;10.85;;;5.68;;
16832;SDS011;8533;48.426;10.868;2023-06-22T11:37:59;11.07;;;5.30;;
16832;SDS011;8533;48.426;10.868;2023-06-22T11:40:24;10.95;;;5.22;;
16832;SDS011;8533;48.426;10.868;2023-06-22T11:42:49;11.85;;;5.00;;
16832;SDS011;8533;48.426;10.868;2023-06-22T11:45:15;14.73;;;5.13;;
16832;SDS011;8533;48.426;10.868;2023-06-22T11:47:41;11.30;;;5.32;;
16832;SDS011;8533;48.426;10.868;2023-06-22T11:50:06;7.40;;;4.53;;
16832;SDS011;8533;48.426;10.868;2023-06-22T11:52:33;15.18;;;5.35;;
16832;SDS011;8533;48.426;10.868;2023-06-22T11:54:58;12.27;;;4.88;;
16832;SDS011;8533;48.426;10.868;2023-06-22T11:57:24;11.52;;;5.20;;
16832;SDS011;8533;48.426;10.868;2023-06-22T11:59:49;14.25;;;5.43;;
16832;SDS011;8533;48.426;10.868;2023-06-22T12:02:15;9.90;;;5.00;;
16832;SDS011;8533;48.426;10.868;2023-06-22T12:04:40;14.63;;;4.85;;
16832;SDS011;8533;48.426;10.868;2023-06-22T12:07:05;10.05;;;5.30;;
16832;SDS011;8533;48.426;10.868;2023-06-22T12:09:30;17.63;;;5.23;;
16832;SDS011;8533;48.426;10.868;2023-06-22T12:11:56;11.10;;;4.60;;
16832;SDS011;8533;48.426;10.868;2023-06-22T12:14:21;12.07;;;4.80;;
16832;SDS011;8533;48.426;10.868;2023-06-22T12:16:46;14.97;;;5.57;;
16832;SDS011;8533;48.426;10.868;2023-06-22T12:19:12;10.47;;;4.90;;
16832;SDS011;8533;48.426;10.868;2023-06-22T12:21:37;13.17;;;5.00;;
16832;SDS011;8533;48.426;10.868;2023-06-22T12:24:02;9.87;;;5.30;;
16832;SDS011;8533;48.426;10.868;2023-06-22T12:26:28;10.63;;;4.40;;
16832;SDS011;8533;48.426;10.868;2023-06-22T12:28:53;11.40;;;5.03;;
16832;SDS011;8533;48.426;10.868;2023-06-22T12:31:18;8.77;;;4.23;;
16832;SDS011;8533;48.426;10.868;2023-06-22T12:33:44;8.47;;;4.60;;
16832;SDS011;8533;48.426;10.868;2023-06-22T12:36:09;14.17;;;5.03;;
16832;SDS011;8533;48.426;10.868;2023-06-22T12:38:34;10.97;;;4.80;;
16832;SDS011;8533;48.426;10.868;2023-06-22T12:41:00;10.60;;;5.23;;
16832;SDS011;8533;48.426;10.868;2023-06-22T12:43:25;11.57;;;4.73;;
16832;SDS011;8533;48.426;10.868;2023-06-22T12:45:50;15.77;;;5.47;;
16832;SDS011;8533;48.426;10.868;2023-06-22T12:48:16;11.23;;;4.93;;
16832;SDS011;8533;48.426;10.868;2023-06-22T12:50:41;8.70;;;4.93;;
16832;SDS011;8533;48.426;10.868;2023-06-22T12:53:07;12.30;;;4.90;;
16832;SDS011;8533;48.426;10.868;2023-06-22T12:55:32;11.38;;;5.47;;
16832;SDS011;8533;48.426;10.868;2023-06-22T12:57:58;15.82;;;5.40;;
16832;SDS011;8533;48.426;10.868;2023-06-22T13:00:23;11.05;;;5.65;;
16832;SDS011;8533;48.426;10.868;2023-06-22T13:02:48;9.32;;;5.05;;
16832;SDS011;8533;48.426;10.868;2023-06-22T13:05:13;16.15;;;5.47;;
16832;SDS011;8533;48.426;10.868;2023-06-22T13:07:39;13.75;;;5.38;;
16832;SDS011;8533;48.426;10.868;2023-06-22T13:10:04;12.23;;;4.93;;
16832;SDS011;8533;48.426;10.868;2023-06-22T13:12:30;15.63;;;5.55;;
16832;SDS011;8533;48.426;10.868;2023-06-22T13:14:55;13.27;;;5.30;;
16832;SDS011;8533;48.426;10.868;2023-06-22T13:17:20;8.43;;;5.00;;
16832;SDS011;8533;48.426;10.868;2023-06-22T13:19:46;9.02;;;5.28;;
16832;SDS011;8533;48.426;10.868;2023-06-22T13:25:04;13.07;;;4.90;;
16832;SDS011;8533;48.426;10.868;2023-06-22T13:27:30;13.98;;;5.50;;
16832;SDS011;8533;48.426;10.868;2023-06-22T13:29:56;17.50;;;5.90;;
16832;SDS011;8533;48.426;10.868;2023-06-22T13:32:21;9.40;;;4.85;;
16832;SDS011;8533;48.426;10.868;2023-06-22T13:34:46;10.88;;;5.07;;
16832;SDS011;8533;48.426;10.868;2023-06-22T13:37:12;9.68;;;5.18;;
16832;SDS011;8533;48.426;10.868;2023-06-22T13:39:37;12.30;;;4.85;;
16832;SDS011;8533;48.426;10.868;2023-06-22T13:42:02;8.63;;;4.88;;
16832;SDS011;8533;48.426;10.868;2023-06-22T13:44:28;13.43;;;5.22;;
16832;SDS011;8533;48.426;10.868;2023-06-22T13:46:54;16.25;;;5.05;;
16832;SDS011;8533;48.426;10.868;2023-06-22T13:49:20;11.10;;;5.03;;
16832;SDS011;8533;48.426;10.868;2023-06-22T13:51:46;12.48;;;5.25;;
16832;SDS011;8533;48.426;10.868;2023-06-22T13:54:13;10.90;;;5.35;;
16832;SDS011;8533;48.426;10.868;2023-06-22T13:56:38;17.67;;;5.60;;
16832;SDS011;8533;48.426;10.868;2023-06-22T13:59:03;12.43;;;5.07;;
16832;SDS011;8533;48.426;10.868;2023-06-22T14:01:29;11.00;;;5.22;;
16832;SDS011;8533;48.426;10.868;2023-06-22T14:03:54;12.15;;;6.60;;
16832;SDS011;8533;48.426;10.868;2023-06-22T14:06:19;12.45;;;5.18;;
16832;SDS011;8533;48.426;10.868;2023-06-22T14:08:44;18.13;;;5.28;;
16832;SDS011;8533;48.426;10.868;2023-06-22T14:11:10;14.98;;;5.10;;
16832;SDS011;8533;48.426;10.868;2023-06-22T14:13:35;12.95;;;6.00;;
16832;SDS011;8533;48.426;10.868;2023-06-22T14:16:00;12.73;;;5.38;;
16832;SDS011;8533;48.426;10.868;2023-06-22T14:18:26;16.25;;;5.05;;
16832;SDS011;8533;48.426;10.868;2023-06-22T14:20:51;12.80;;;5.28;;
16832;SDS011;8533;48.426;10.868;2023-06-22T14:23:16;18.60;;;5.57;;
16832;SDS011;8533;48.426;10.868;2023-06-22T14:25:41;14.73;;;5.17;;
16832;SDS011;8533;48.426;10.868;2023-06-22T14:28:07;12.23;;;5.30;;
16832;SDS011;8533;48.426;10.868;2023-06-22T14:30:32;11.50;;;5.13;;
16832;SDS011;8533;48.426;10.868;2023-06-22T14:32:57;12.00;;;5.40;;
16832;SDS011;8533;48.426;10.868;2023-06-22T14:35:22;17.20;;;4.87;;
16832;SDS011;8533;48.426;10.868;2023-06-22T14:37:49;8.27;;;5.07;;
16832;SDS011;8533;48.426;10.868;2023-06-22T14:40:14;16.70;;;5.03;;
16832;SDS011;8533;48.426;10.868;2023-06-22T14:42:40;14.40;;;5.70;;
16832;SDS011;8533;48.426;10.868;2023-06-22T14:45:05;10.80;;;5.80;;
16832;SDS011;8533;48.426;10.868;2023-06-22T14:47:31;11.73;;;5.10;;
16832;SDS011;8533;48.426;10.868;2023-06-22T14:49:56;14.00;;;5.47;;